createdAt,value
2018-12-08T00:01:09.267Z,93297.10
2018-12-08T00:03:37.201Z,93296.89
2018-12-08T00:06:04.893Z,93285.66
2018-12-08T00:08:32.513Z,93291.69
2018-12-08T00:11:00.198Z,93295.48
2018-12-08T00:13:27.824Z,93290.75
2018-12-08T00:15:55.661Z,93293.03
2018-12-08T00:18:23.499Z,93294.11
2018-12-08T00:20:51.173Z,93287.38
2018-12-08T00:23:18.800Z,93279.36
2018-12-08T00:25:46.473Z,93272.22
2018-12-08T00:28:14.301Z,93274.00
2018-12-08T00:30:53.917Z,93277.14
2018-12-08T00:33:21.574Z,93271.84
2018-12-08T00:35:49.255Z,93273.50
2018-12-08T00:38:18.578Z,93276.91
2018-12-08T00:40:46.774Z,93276.84
2018-12-08T00:43:14.475Z,93261.17
2018-12-08T00:45:42.144Z,93257.96
2018-12-08T00:48:09.903Z,93252.77
2018-12-08T00:50:37.597Z,93258.42
2018-12-08T00:53:05.382Z,93257.42
2018-12-08T00:55:34.945Z,93260.95
2018-12-08T00:58:02.605Z,93266.83
2018-12-08T01:00:31.027Z,93276.01
2018-12-08T01:02:58.824Z,93289.34
2018-12-08T01:05:27.406Z,93291.80
2018-12-08T01:07:56.087Z,93292.34
2018-12-08T01:10:24.377Z,93293.80
2018-12-08T01:12:52.922Z,93308.09
2018-12-08T01:15:20.566Z,93322.40
2018-12-08T01:17:48.317Z,93319.61
2018-12-08T01:20:17.007Z,93314.25
2018-12-08T01:22:44.614Z,93314.95
2018-12-08T01:25:12.283Z,93322.27
2018-12-08T01:27:41.027Z,93321.36
2018-12-08T01:30:09.102Z,93330.22
2018-12-08T01:32:36.719Z,93340.98
2018-12-08T01:35:06.243Z,93357.77
2018-12-08T01:37:34.479Z,93340.21
2018-12-08T01:40:02.117Z,93315.92
2018-12-08T01:42:29.830Z,93323.27
2018-12-08T01:44:59.231Z,93332.83
2018-12-08T01:47:26.828Z,93338.48
2018-12-08T01:49:56.353Z,93345.86
2018-12-08T01:52:23.961Z,93358.66
2018-12-08T01:54:51.609Z,93361.38
2018-12-08T01:57:19.195Z,93372.27
2018-12-08T01:59:47.816Z,93386.86
2018-12-08T02:02:16.660Z,93395.14
2018-12-08T02:04:44.459Z,93412.22
2018-12-08T02:07:12.714Z,93407.05
2018-12-08T02:09:41.311Z,93401.59
2018-12-08T02:12:08.926Z,93409.81
2018-12-08T02:14:36.534Z,93429.76
2018-12-08T02:17:04.212Z,93423.78
2018-12-08T02:19:31.800Z,93421.17
2018-12-08T02:21:59.451Z,93440.27
2018-12-08T02:24:27.046Z,93468.92
2018-12-08T02:26:54.648Z,93467.48
2018-12-08T02:29:22.513Z,93478.45
2018-12-08T02:31:50.117Z,93482.30
2018-12-08T02:34:17.839Z,93480.66
2018-12-08T02:36:45.453Z,93506.53
2018-12-08T02:39:13.153Z,93518.50
2018-12-08T02:41:40.809Z,93544.70
2018-12-08T02:44:08.413Z,93558.45
2018-12-08T02:46:36.948Z,93564.72
2018-12-08T02:49:05.543Z,93569.09
2018-12-08T02:51:33.210Z,93569.60
2018-12-08T02:54:00.873Z,93557.93
2018-12-08T02:56:29.065Z,93567.02
2018-12-08T02:58:56.714Z,93554.97
2018-12-08T03:01:24.340Z,93573.91
2018-12-08T03:03:52.049Z,93571.92
2018-12-08T03:06:19.722Z,93576.37
2018-12-08T03:08:47.591Z,93570.25
2018-12-08T03:11:15.181Z,93575.65
2018-12-08T03:13:42.839Z,93566.14
2018-12-08T03:16:10.829Z,93561.93
2018-12-08T03:18:38.501Z,93564.33
2018-12-08T03:21:06.078Z,93571.15
2018-12-08T03:23:33.694Z,93573.34
2018-12-08T03:26:01.423Z,93588.80
2018-12-08T03:28:29.035Z,93591.96
2018-12-08T03:30:56.693Z,93590.02
2018-12-08T03:33:24.295Z,93597.75
2018-12-08T03:35:51.965Z,93601.34
2018-12-08T03:38:19.607Z,93617.66
2018-12-08T03:40:47.206Z,93627.30
2018-12-08T03:43:14.863Z,93626.38
2018-12-08T03:45:42.470Z,93626.48
2018-12-08T03:48:10.147Z,93631.83
2018-12-08T03:50:37.726Z,93634.03
2018-12-08T03:53:05.331Z,93643.55
2018-12-08T03:55:32.969Z,93639.48
2018-12-08T03:58:00.564Z,93653.53
2018-12-08T04:00:28.207Z,93650.97
2018-12-08T04:02:55.816Z,93660.08
2018-12-08T04:05:25.835Z,93659.96
2018-12-08T04:07:53.493Z,93671.06
2018-12-08T04:10:21.163Z,93673.34
2018-12-08T04:12:48.827Z,93679.77
2018-12-08T04:15:16.937Z,93680.38
2018-12-08T04:17:44.611Z,93688.70
2018-12-08T04:20:13.049Z,93692.45
2018-12-08T04:22:40.714Z,93670.28
2018-12-08T04:25:09.027Z,93683.05
2018-12-08T04:27:36.642Z,93694.50
2018-12-08T04:30:06.991Z,93685.11
2018-12-08T04:32:34.707Z,93711.23
2018-12-08T04:35:02.311Z,93693.62
2018-12-08T04:37:29.907Z,93714.17
2018-12-08T04:39:57.549Z,93715.89
2018-12-08T04:42:25.129Z,93724.16
2018-12-08T04:44:52.822Z,93716.39
2018-12-08T04:47:20.431Z,93731.23
2018-12-08T04:49:48.135Z,93733.59
2018-12-08T04:52:15.879Z,93738.59
2018-12-08T04:54:43.458Z,93740.78
2018-12-08T04:57:11.166Z,93749.25
2018-12-08T04:59:38.789Z,93737.88
2018-12-08T05:02:06.893Z,93749.18
2018-12-08T05:04:34.578Z,93729.84
2018-12-08T05:07:02.173Z,93728.44
2018-12-08T05:09:29.742Z,93738.81
2018-12-08T05:11:57.394Z,93748.95
2018-12-08T05:14:25.016Z,93756.30
2018-12-08T05:16:52.679Z,93764.53
2018-12-08T05:19:20.267Z,93755.42
2018-12-08T05:21:49.015Z,93751.48
2018-12-08T05:24:18.174Z,93756.86
2018-12-08T05:26:46.124Z,93776.41
2018-12-08T05:29:13.865Z,93770.47
2018-12-08T05:31:41.536Z,93767.75
2018-12-08T05:34:09.190Z,93773.55
2018-12-08T05:36:36.786Z,93776.56
2018-12-08T05:39:06.438Z,93767.75
2018-12-08T05:41:34.021Z,93777.22
2018-12-08T05:44:01.614Z,93789.17
2018-12-08T05:46:29.250Z,93803.92
2018-12-08T05:48:56.846Z,93801.91
2018-12-08T05:51:24.501Z,93797.30
2018-12-08T05:53:52.162Z,93808.31
2018-12-08T05:56:19.826Z,93824.02
2018-12-08T05:58:47.552Z,93830.07
2018-12-08T06:01:15.140Z,93838.39
2018-12-08T06:03:42.790Z,93835.58
2018-12-08T06:06:10.378Z,93842.91
2018-12-08T06:08:38.036Z,93839.88
2018-12-08T06:11:05.686Z,93839.88
2018-12-08T06:13:33.345Z,93841.78
2018-12-08T06:16:01.026Z,93843.70
2018-12-08T06:18:28.720Z,93855.27
2018-12-08T06:20:56.467Z,93853.80
2018-12-08T06:23:24.140Z,93853.80
2018-12-08T06:25:51.842Z,93849.80
2018-12-08T06:28:19.436Z,93847.71
2018-12-08T06:30:47.435Z,93849.39
2018-12-08T06:33:15.157Z,93847.47
2018-12-08T06:35:42.835Z,93845.17
2018-12-08T06:38:10.421Z,93842.39
2018-12-08T06:40:38.114Z,93830.33
2018-12-08T06:43:05.698Z,93849.12
2018-12-08T06:45:33.319Z,93841.10
2018-12-08T06:48:01.061Z,93842.20
2018-12-08T06:50:28.850Z,93840.61
2018-12-08T06:52:56.478Z,93840.49
2018-12-08T06:55:24.186Z,93842.57
2018-12-08T06:57:51.929Z,93847.09
2018-12-08T07:00:19.702Z,93842.52
2018-12-08T07:02:47.466Z,93858.48
2018-12-08T07:05:15.295Z,93865.83
2018-12-08T07:07:42.883Z,93860.22
2018-12-08T07:10:10.598Z,93858.97
2018-12-08T07:12:38.290Z,93854.75
2018-12-08T07:15:05.992Z,93854.69
2018-12-08T07:17:33.651Z,93859.22
2018-12-08T07:20:01.988Z,93847.83
2018-12-08T07:22:29.666Z,93848.20
2018-12-08T07:24:57.364Z,93851.88
2018-12-08T07:27:26.196Z,93858.97
2018-12-08T07:29:53.799Z,93855.97
2018-12-08T07:32:21.460Z,93863.06
2018-12-08T07:34:49.219Z,93855.29
2018-12-08T07:37:16.870Z,93867.47
2018-12-08T07:39:44.548Z,93865.70
2018-12-08T07:42:12.647Z,93867.88
2018-12-08T07:44:40.432Z,93877.61
2018-12-08T07:47:08.216Z,93869.47
2018-12-08T07:49:35.862Z,93869.95
2018-12-08T07:52:03.451Z,93864.11
2018-12-08T07:54:31.115Z,93844.22
2018-12-08T07:56:58.698Z,93859.21
2018-12-08T07:59:26.289Z,93847.14
2018-12-08T08:01:53.983Z,93860.55
2018-12-08T08:04:21.705Z,93860.59
2018-12-08T08:06:49.369Z,93858.28
2018-12-08T08:09:17.234Z,93860.14
2018-12-08T08:11:45.079Z,93859.14
2018-12-08T08:14:12.836Z,93859.39
2018-12-08T08:16:40.617Z,93863.06
2018-12-08T08:19:08.222Z,93858.84
2018-12-08T08:21:35.847Z,93855.98
2018-12-08T08:24:03.505Z,93856.15
2018-12-08T08:26:31.696Z,93860.56
2018-12-08T08:28:59.420Z,93856.22
2018-12-08T08:31:27.326Z,93857.69
2018-12-08T08:33:54.993Z,93849.23
2018-12-08T08:36:22.642Z,93855.97
2018-12-08T08:38:50.310Z,93862.45
2018-12-08T08:41:17.989Z,93850.80
2018-12-08T08:43:45.977Z,93840.80
2018-12-08T08:46:13.564Z,93840.55
2018-12-08T08:48:41.219Z,93845.88
2018-12-08T08:51:09.808Z,93849.95
2018-12-08T08:53:37.509Z,93857.96
2018-12-08T08:56:05.115Z,93860.86
2018-12-08T08:58:32.831Z,93853.80
2018-12-08T09:01:00.628Z,93858.58
2018-12-08T09:03:28.237Z,93856.98
2018-12-08T09:05:55.922Z,93853.40
2018-12-08T09:08:23.594Z,93857.93
2018-12-08T09:10:51.281Z,93851.26
2018-12-08T09:13:18.987Z,93857.81
2018-12-08T09:15:46.686Z,93855.91
2018-12-08T09:18:14.358Z,93852.14
2018-12-08T09:20:42.023Z,93852.45
2018-12-08T09:23:09.627Z,93846.55
2018-12-08T09:25:38.153Z,93849.21
2018-12-08T09:28:05.826Z,93843.45
2018-12-08T09:30:33.410Z,93839.11
2018-12-08T09:33:01.090Z,93837.09
2018-12-08T09:35:29.712Z,93833.84
2018-12-08T09:37:57.473Z,93836.36
2018-12-08T09:40:25.286Z,93826.59
2018-12-08T09:42:52.984Z,93821.94
2018-12-08T09:45:20.672Z,93823.27
2018-12-08T09:47:48.334Z,93818.62
2018-12-08T09:50:16.042Z,93806.13
2018-12-08T09:52:43.702Z,93806.48
2018-12-08T09:55:11.472Z,93807.70
2018-12-08T09:57:39.228Z,93809.97
2018-12-08T10:00:07.773Z,93803.91
2018-12-08T10:02:35.411Z,93798.63
2018-12-08T10:05:04.343Z,93796.84
2018-12-08T10:07:32.819Z,93799.80
2018-12-08T10:10:00.940Z,93795.56
2018-12-08T10:12:29.747Z,93798.81
2018-12-08T10:14:59.112Z,93793.48
2018-12-08T10:17:28.695Z,93788.27
2018-12-08T10:19:56.379Z,93797.20
2018-12-08T10:22:24.160Z,93796.09
2018-12-08T10:24:52.661Z,93789.28
2018-12-08T10:27:20.300Z,93789.44
2018-12-08T10:29:49.214Z,93775.63
2018-12-08T10:32:16.919Z,93782.85
2018-12-08T10:34:45.422Z,93782.66
2018-12-08T10:37:13.081Z,93771.91
2018-12-08T10:39:40.747Z,93769.67
2018-12-08T10:42:08.486Z,93779.58
2018-12-08T10:44:36.145Z,93781.53
2018-12-08T10:49:37.834Z,93769.52
2018-12-08T10:52:05.567Z,93773.00
2018-12-08T10:54:33.518Z,93778.45
2018-12-08T10:57:01.592Z,93769.62
2018-12-08T10:59:29.491Z,93772.91
2018-12-08T11:01:59.441Z,93770.02
2018-12-08T11:04:27.084Z,93760.44
2018-12-08T11:06:55.548Z,93759.25
2018-12-08T11:09:23.228Z,93763.72
2018-12-08T11:11:50.935Z,93758.44
2018-12-08T11:14:18.535Z,93757.77
2018-12-08T11:16:46.278Z,93755.28
2018-12-08T11:19:14.191Z,93746.95
2018-12-08T11:21:42.116Z,93742.87
2018-12-08T11:24:09.859Z,93742.97
2018-12-08T11:26:37.505Z,93723.73
2018-12-08T11:29:06.140Z,93726.11
2018-12-08T11:31:33.823Z,93728.30
2018-12-08T11:34:01.674Z,93723.11
2018-12-08T11:36:29.726Z,93721.52
2018-12-08T11:38:57.796Z,93719.33
2018-12-08T11:41:25.716Z,93722.11
2018-12-08T11:43:53.536Z,93722.55
2018-12-08T11:46:21.406Z,93709.52
2018-12-08T11:48:49.264Z,93712.53
2018-12-08T11:51:17.753Z,93703.55
2018-12-08T11:53:45.606Z,93705.87
2018-12-08T11:56:13.447Z,93699.78
2018-12-08T11:58:42.120Z,93694.64
2018-12-08T12:01:10.293Z,93694.00
2018-12-08T12:03:37.910Z,93696.41
2018-12-08T12:06:05.778Z,93699.97
2018-12-08T12:08:33.479Z,93699.75
2018-12-08T12:11:01.537Z,93693.41
2018-12-08T12:13:29.530Z,93685.61
2018-12-08T12:15:57.521Z,93697.85
2018-12-08T12:18:25.511Z,93698.64
2018-12-08T12:20:53.517Z,93695.99
2018-12-08T12:23:21.657Z,93698.95
2018-12-08T12:25:49.578Z,93691.49
2018-12-08T12:28:17.790Z,93683.64
2018-12-08T12:30:45.872Z,93683.66
2018-12-08T12:33:13.725Z,93681.79
2018-12-08T12:35:42.340Z,93694.40
2018-12-08T12:38:10.140Z,93687.01
2018-12-08T12:40:38.029Z,93680.64
2018-12-08T12:43:05.953Z,93681.73
2018-12-08T12:45:35.341Z,93683.60
2018-12-08T12:48:03.334Z,93669.67
2018-12-08T12:50:31.256Z,93673.95
2018-12-08T12:52:59.543Z,93675.27
2018-12-08T12:55:27.798Z,93677.35
2018-12-08T12:57:56.610Z,93680.02
2018-12-08T13:00:24.688Z,93674.89
2018-12-08T13:02:53.609Z,93669.43
2018-12-08T13:05:21.500Z,93670.02
2018-12-08T13:07:50.126Z,93671.61
2018-12-08T13:10:19.086Z,93681.34
2018-12-08T13:12:47.054Z,93666.30
2018-12-08T13:15:14.873Z,93671.23
2018-12-08T13:17:42.820Z,93668.23
2018-12-08T13:20:12.844Z,93668.63
2018-12-08T13:22:40.799Z,93674.89
2018-12-08T13:25:20.461Z,93667.60
2018-12-08T13:27:49.081Z,93668.08
2018-12-08T13:30:16.976Z,93665.72
2018-12-08T13:32:44.839Z,93668.39
2018-12-08T13:38:09.222Z,93658.41
2018-12-08T13:40:37.099Z,93653.50
2018-12-08T13:43:04.919Z,93661.69
2018-12-08T13:45:32.841Z,93661.06
2018-12-08T13:48:00.513Z,93664.97
2018-12-08T13:50:28.525Z,93658.49
2018-12-08T13:52:56.804Z,93657.41
2018-12-08T13:55:25.791Z,93659.23
2018-12-08T13:57:55.052Z,93662.11
2018-12-08T14:00:22.923Z,93667.19
2018-12-08T14:02:50.925Z,93680.02
2018-12-08T14:05:20.843Z,93672.75
2018-12-08T14:07:48.874Z,93675.02
2018-12-08T14:10:18.310Z,93681.57
2018-12-08T14:12:46.454Z,93671.97
2018-12-08T14:15:15.415Z,93678.63
2018-12-08T14:17:44.290Z,93682.31
2018-12-08T14:20:22.431Z,93686.14
2018-12-08T14:22:50.299Z,93684.27
2018-12-08T14:25:18.327Z,93691.92
2018-12-08T14:27:46.199Z,93700.55
2018-12-08T14:30:13.900Z,93694.41
2018-12-08T14:32:41.920Z,93698.77
2018-12-08T14:35:09.582Z,93697.50
2018-12-08T14:37:37.851Z,93693.34
2018-12-08T14:40:07.294Z,93696.02
2018-12-08T14:42:35.622Z,93698.30
2018-12-08T14:45:05.276Z,93701.06
2018-12-08T14:47:33.095Z,93697.02
2018-12-08T14:50:01.091Z,93696.63
2018-12-08T14:52:30.682Z,93701.78
2018-12-08T14:54:58.746Z,93698.22
2018-12-08T14:57:27.090Z,93706.42
2018-12-08T14:59:55.057Z,93705.52
2018-12-08T15:02:23.746Z,93701.58
2018-12-08T15:04:52.023Z,93701.17
2018-12-08T15:07:22.583Z,93703.85
2018-12-08T15:09:50.418Z,93698.77
2018-12-08T15:12:18.555Z,93699.39
2018-12-08T15:14:46.551Z,93700.18
2018-12-08T15:17:15.645Z,93711.96
2018-12-08T15:19:43.804Z,93707.30
2018-12-08T15:22:11.756Z,93701.75
2018-12-08T15:24:39.899Z,93701.36
2018-12-08T15:27:07.856Z,93702.55
2018-12-08T15:29:35.940Z,93705.70
2018-12-08T15:32:04.381Z,93696.98
2018-12-08T15:34:32.245Z,93711.75
2018-12-08T15:37:01.334Z,93720.34
2018-12-08T15:39:30.407Z,93724.32
2018-12-08T15:41:58.639Z,93723.03
2018-12-08T15:44:26.635Z,93726.09
2018-12-08T15:46:55.136Z,93722.43
2018-12-08T15:49:23.215Z,93730.75
2018-12-08T15:51:54.092Z,93729.97
2018-12-08T15:54:22.014Z,93724.75
2018-12-08T15:56:49.951Z,93722.95
2018-12-08T15:59:17.973Z,93725.44
2018-12-08T16:01:50.738Z,93723.38
2018-12-08T16:04:18.577Z,93722.87
2018-12-08T16:06:46.471Z,93710.59
2018-12-08T16:09:14.549Z,93697.41
2018-12-08T16:11:42.414Z,93711.08
2018-12-08T16:14:10.279Z,93704.36
2018-12-08T16:16:38.330Z,93703.64
2018-12-08T16:19:06.670Z,93703.85
2018-12-08T16:21:34.545Z,93703.41
2018-12-08T16:24:03.398Z,93701.61
2018-12-08T16:26:32.259Z,93696.46
2018-12-08T16:29:01.154Z,93679.39
2018-12-08T16:31:29.885Z,93684.83
2018-12-08T16:33:58.328Z,93687.05
2018-12-08T16:36:26.009Z,93688.85
2018-12-08T16:38:54.080Z,93692.94
2018-12-08T16:41:22.963Z,93699.36
2018-12-08T16:43:51.032Z,93700.13
2018-12-08T16:46:21.463Z,93703.26
2018-12-08T16:48:49.126Z,93706.81
2018-12-08T16:51:17.197Z,93714.11
2018-12-08T16:53:44.922Z,93704.16
2018-12-08T16:56:13.773Z,93703.86
2018-12-08T16:58:41.757Z,93706.51
2018-12-08T17:01:09.914Z,93709.38
2018-12-08T17:03:37.966Z,93706.40
2018-12-08T17:06:06.966Z,93701.63
2018-12-08T17:08:34.847Z,93700.31
2018-12-08T17:11:03.618Z,93699.03
2018-12-08T17:13:32.393Z,93699.06
2018-12-08T17:16:00.604Z,93692.06
2018-12-08T17:18:28.637Z,93696.11
2018-12-08T17:20:56.315Z,93691.23
2018-12-08T17:23:24.594Z,93686.06
2018-12-08T17:25:52.786Z,93677.05
2018-12-08T17:28:22.686Z,93673.69
2018-12-08T17:30:50.750Z,93670.02
2018-12-08T17:33:18.828Z,93678.75
2018-12-08T17:35:46.762Z,93687.05
2018-12-08T17:38:15.000Z,93686.47
2018-12-08T17:40:42.952Z,93691.23
2018-12-08T17:43:12.012Z,93693.31
2018-12-08T17:45:42.376Z,93702.23
2018-12-08T17:48:10.965Z,93705.22
2018-12-08T17:50:38.912Z,93707.30
2018-12-08T17:53:06.553Z,93708.86
2018-12-08T17:55:34.389Z,93694.19
2018-12-08T17:58:02.118Z,93692.59
2018-12-08T18:00:29.815Z,93692.59
2018-12-08T18:02:57.602Z,93689.45
2018-12-08T18:05:25.211Z,93680.74
2018-12-08T18:07:54.066Z,93700.02
2018-12-08T18:10:21.668Z,93690.48
2018-12-08T18:12:51.052Z,93696.93
2018-12-08T18:15:19.713Z,93694.52
2018-12-08T18:17:48.423Z,93693.88
2018-12-08T18:20:17.525Z,93690.90
2018-12-08T18:22:45.594Z,93683.78
2018-12-08T18:25:14.236Z,93682.01
2018-12-08T18:27:43.127Z,93680.20
2018-12-08T18:30:11.050Z,93683.70
2018-12-08T18:32:38.680Z,93679.31
2018-12-08T18:35:06.436Z,93677.62
2018-12-08T18:37:35.084Z,93681.77
2018-12-08T18:40:04.046Z,93682.27
2018-12-08T18:42:31.930Z,93677.13
2018-12-08T18:45:00.474Z,93676.22
2018-12-08T18:47:28.178Z,93670.32
2018-12-08T18:49:56.068Z,93678.56
2018-12-08T18:52:23.738Z,93674.11
2018-12-08T18:54:51.403Z,93678.03
2018-12-08T18:57:19.019Z,93680.85
2018-12-08T18:59:47.044Z,93672.47
2018-12-08T19:02:14.952Z,93671.86
2018-12-08T19:04:44.904Z,93671.56
2018-12-08T19:07:13.403Z,93668.84
2018-12-08T19:09:42.229Z,93664.52
2018-12-08T19:12:12.350Z,93650.58
2018-12-08T19:14:42.633Z,93645.93
2018-12-08T19:17:10.344Z,93653.48
2018-12-08T19:19:38.378Z,93652.30
2018-12-08T19:22:06.105Z,93648.07
2018-12-08T19:24:33.945Z,93659.53
2018-12-08T19:27:02.920Z,93665.34
2018-12-08T19:29:31.040Z,93677.33
2018-12-08T19:31:59.736Z,93677.75
2018-12-08T19:34:28.485Z,93688.82
2018-12-08T19:36:56.640Z,93694.83
2018-12-08T19:39:24.502Z,93679.64
2018-12-08T19:41:52.266Z,93676.48
2018-12-08T19:44:20.157Z,93672.48
2018-12-08T19:46:49.451Z,93663.70
2018-12-08T19:49:22.734Z,93658.11
2018-12-08T19:51:51.416Z,93663.77
2018-12-08T19:54:19.253Z,93676.53
2018-12-08T19:56:47.646Z,93679.97
2018-12-08T19:59:16.601Z,93684.72
2018-12-08T20:01:44.533Z,93671.59
2018-12-08T20:04:12.434Z,93661.17
2018-12-08T20:06:43.894Z,93662.09
2018-12-08T20:09:12.635Z,93650.41
2018-12-08T20:11:40.259Z,93640.86
2018-12-08T20:14:08.068Z,93637.88
2018-12-08T20:16:36.572Z,93647.78
2018-12-08T20:19:04.177Z,93643.61
2018-12-08T20:21:33.144Z,93642.63
2018-12-08T20:24:01.757Z,93645.09
2018-12-08T20:26:29.727Z,93638.86
2018-12-08T20:28:59.159Z,93636.11
2018-12-08T20:31:27.136Z,93632.74
2018-12-08T20:33:56.005Z,93620.64
2018-12-08T20:36:24.850Z,93620.48
2018-12-08T20:38:52.724Z,93624.95
2018-12-08T20:41:20.949Z,93621.90
2018-12-08T20:43:48.631Z,93622.16
2018-12-08T20:46:16.241Z,93615.44
2018-12-08T20:48:43.949Z,93611.01
2018-12-08T20:51:11.579Z,93609.47
2018-12-08T20:53:39.449Z,93613.48
2018-12-08T20:56:07.150Z,93613.02
2018-12-08T20:58:34.872Z,93612.94
2018-12-08T21:01:02.541Z,93610.87
2018-12-08T21:03:30.294Z,93616.19
2018-12-08T21:05:57.923Z,93616.13
2018-12-08T21:08:25.586Z,93616.36
2018-12-08T21:10:53.346Z,93606.95
2018-12-08T21:13:21.852Z,93607.93
2018-12-08T21:15:49.599Z,93605.11
2018-12-08T21:18:18.099Z,93591.37
2018-12-08T21:20:45.749Z,93592.66
2018-12-08T21:23:14.553Z,93588.17
2018-12-08T21:25:42.240Z,93591.95
2018-12-08T21:28:10.783Z,93588.31
2018-12-08T21:30:38.410Z,93593.55
2018-12-08T21:33:06.058Z,93588.99
2018-12-08T21:35:33.854Z,93577.44
2018-12-08T21:38:01.728Z,93582.88
2018-12-08T21:40:30.834Z,93577.12
2018-12-08T21:42:59.150Z,93584.02
2018-12-08T21:45:27.198Z,93579.39
2018-12-08T21:47:55.520Z,93579.57
2018-12-08T21:50:23.207Z,93560.81
2018-12-08T21:52:51.527Z,93564.23
2018-12-08T21:55:19.215Z,93558.98
2018-12-08T21:57:47.825Z,93551.66
2018-12-08T22:00:16.123Z,93554.45
2018-12-08T22:02:44.081Z,93561.23
2018-12-08T22:05:12.202Z,93563.13
2018-12-08T22:07:40.728Z,93571.09
2018-12-08T22:10:09.863Z,93572.50
2018-12-08T22:12:38.006Z,93579.19
2018-12-08T22:15:09.758Z,93567.46
2018-12-08T22:17:37.815Z,93555.26
2018-12-08T22:20:06.915Z,93558.73
2018-12-08T22:22:34.586Z,93539.55
2018-12-08T22:25:03.220Z,93537.16
2018-12-08T22:27:30.914Z,93543.27
2018-12-08T22:29:58.705Z,93529.30
2018-12-08T22:32:26.345Z,93517.75
2018-12-08T22:34:54.051Z,93512.47
2018-12-08T22:37:21.758Z,93513.83
2018-12-08T22:39:49.450Z,93503.80
2018-12-08T22:42:17.255Z,93504.59
2018-12-08T22:44:44.909Z,93490.56
2018-12-08T22:47:12.560Z,93481.45
2018-12-08T22:49:40.161Z,93470.45
2018-12-08T22:52:07.818Z,93466.39
2018-12-08T22:54:35.918Z,93464.48
2018-12-08T22:57:03.646Z,93462.30
2018-12-08T22:59:31.404Z,93457.03
2018-12-08T23:01:59.229Z,93449.66
2018-12-08T23:04:27.104Z,93445.27
2018-12-08T23:07:03.073Z,93437.45
2018-12-08T23:09:30.827Z,93424.81
2018-12-08T23:11:58.765Z,93422.55
2018-12-08T23:14:26.762Z,93417.66
2018-12-08T23:16:54.635Z,93411.15
2018-12-08T23:19:24.030Z,93414.02
2018-12-08T23:21:51.678Z,93408.74
2018-12-08T23:24:19.623Z,93415.45
2018-12-08T23:26:47.309Z,93408.11
2018-12-08T23:29:14.987Z,93411.71
2018-12-08T23:31:42.747Z,93399.41
2018-12-08T23:34:10.468Z,93391.84
2018-12-08T23:36:38.292Z,93390.67
2018-12-08T23:39:06.764Z,93389.20
2018-12-08T23:41:35.043Z,93376.70
2018-12-08T23:44:02.693Z,93364.20
2018-12-08T23:46:30.574Z,93355.06
2018-12-08T23:48:58.437Z,93345.41
2018-12-08T23:51:26.480Z,93328.22
2018-12-08T23:53:54.354Z,93315.21
2018-12-08T23:56:22.342Z,93313.88
2018-12-08T23:58:50.143Z,93320.70
